sensor_id;sensor_type;location;lat;lon;timestamp;temperature;humidity
4757;DHT22;2392;52.578;13.426;2023-03-14T00:01:39;12.80;99.90
4757;DHT22;2392;52.578;13.426;2023-03-14T00:04:06;12.70;99.90
4757;DHT22;2392;52.578;13.426;2023-03-14T00:06:35;12.70;99.90
4757;DHT22;2392;52.578;13.426;2023-03-14T00:09:02;12.70;99.90
4757;DHT22;2392;52.578;13.426;2023-03-14T00:11:29;12.70;99.90
4757;DHT22;2392;52.578;13.426;2023-03-14T00:13:57;12.60;99.90
4757;DHT22;2392;52.578;13.426;2023-03-14T00:16:25;12.60;99.90
4757;DHT22;2392;52.578;13.426;2023-03-14T00:18:54;12.60;99.90
4757;DHT22;2392;52.578;13.426;2023-03-14T00:21:21;12.60;99.90
4757;DHT22;2392;52.578;13.426;2023-03-14T00:23:48;12.60;99.90
4757;DHT22;2392;52.578;13.426;2023-03-14T00:26:17;12.50;99.90
4757;DHT22;2392;52.578;13.426;2023-03-14T00:28:44;12.50;99.90
4757;DHT22;2392;52.578;13.426;2023-03-14T00:31:14;12.50;99.90
4757;DHT22;2392;52.578;13.426;2023-03-14T00:33:42;12.40;99.90
4757;DHT22;2392;52.578;13.426;2023-03-14T00:36:13;12.40;99.90
4757;DHT22;2392;52.578;13.426;2023-03-14T00:38:41;12.40;99.90
4757;DHT22;2392;52.578;13.426;2023-03-14T00:41:10;12.30;99.90
4757;DHT22;2392;52.578;13.426;2023-03-14T00:43:37;12.30;99.90
4757;DHT22;2392;52.578;13.426;2023-03-14T00:46:05;12.30;99.90
4757;DHT22;2392;52.578;13.426;2023-03-14T00:48:32;12.30;99.90
4757;DHT22;2392;52.578;13.426;2023-03-14T00:51:00;12.20;99.90
4757;DHT22;2392;52.578;13.426;2023-03-14T00:53:29;12.20;99.90
4757;DHT22;2392;52.578;13.426;2023-03-14T00:55:56;12.20;99.90
4757;DHT22;2392;52.578;13.426;2023-03-14T00:58:23;12.10;99.90
4757;DHT22;2392;52.578;13.426;2023-03-14T01:00:50;12.10;99.90
4757;DHT22;2392;52.578;13.426;2023-03-14T01:03:17;12.10;99.90
4757;DHT22;2392;52.578;13.426;2023-03-14T01:05:45;12.10;99.90
4757;DHT22;2392;52.578;13.426;2023-03-14T01:08:12;12.10;99.90
4757;DHT22;2392;52.578;13.426;2023-03-14T01:10:40;12.10;99.90
4757;DHT22;2392;52.578;13.426;2023-03-14T01:13:08;12.00;99.90
4757;DHT22;2392;52.578;13.426;2023-03-14T01:15:36;12.00;99.90
4757;DHT22;2392;52.578;13.426;2023-03-14T01:18:03;12.00;99.90
4757;DHT22;2392;52.578;13.426;2023-03-14T01:20:30;12.00;99.90
4757;DHT22;2392;52.578;13.426;2023-03-14T01:22:57;11.90;99.90
4757;DHT22;2392;52.578;13.426;2023-03-14T01:25:24;11.90;99.90
4757;DHT22;2392;52.578;13.426;2023-03-14T01:27:53;11.90;99.90
4757;DHT22;2392;52.578;13.426;2023-03-14T01:30:21;11.90;99.90
4757;DHT22;2392;52.578;13.426;2023-03-14T01:32:48;11.80;99.90
4757;DHT22;2392;52.578;13.426;2023-03-14T01:35:15;11.90;99.90
4757;DHT22;2392;52.578;13.426;2023-03-14T01:37:42;11.80;99.90
4757;DHT22;2392;52.578;13.426;2023-03-14T01:40:15;11.80;99.90
4757;DHT22;2392;52.578;13.426;2023-03-14T01:42:46;11.80;99.90
4757;DHT22;2392;52.578;13.426;2023-03-14T01:48:28;11.80;99.90
4757;DHT22;2392;52.578;13.426;2023-03-14T01:50:59;11.90;99.90
4757;DHT22;2392;52.578;13.426;2023-03-14T01:53:27;11.90;99.90
4757;DHT22;2392;52.578;13.426;2023-03-14T01:55:55;11.90;99.90
4757;DHT22;2392;52.578;13.426;2023-03-14T01:58:24;11.90;99.90
4757;DHT22;2392;52.578;13.426;2023-03-14T02:00:52;11.90;99.90
4757;DHT22;2392;52.578;13.426;2023-03-14T02:03:22;11.90;99.90
4757;DHT22;2392;52.578;13.426;2023-03-14T02:05:52;11.90;99.90
4757;DHT22;2392;52.578;13.426;2023-03-14T02:08:23;11.80;99.90
4757;DHT22;2392;52.578;13.426;2023-03-14T02:10:54;11.80;99.90
4757;DHT22;2392;52.578;13.426;2023-03-14T02:13:45;11.80;99.90
4757;DHT22;2392;52.578;13.426;2023-03-14T02:16:33;11.80;99.90
4757;DHT22;2392;52.578;13.426;2023-03-14T02:19:39;11.80;99.90
4757;DHT22;2392;52.578;13.426;2023-03-14T02:22:31;11.80;99.90
4757;DHT22;2392;52.578;13.426;2023-03-14T02:25:08;11.70;99.90
4757;DHT22;2392;52.578;13.426;2023-03-14T02:27:39;11.70;99.90
4757;DHT22;2392;52.578;13.426;2023-03-14T02:30:10;11.80;99.90
4757;DHT22;2392;52.578;13.426;2023-03-14T02:32:43;11.70;99.90
4757;DHT22;2392;52.578;13.426;2023-03-14T02:35:16;11.80;99.90
4757;DHT22;2392;52.578;13.426;2023-03-14T02:37:47;11.80;99.90
4757;DHT22;2392;52.578;13.426;2023-03-14T02:40:15;11.80;99.90
4757;DHT22;2392;52.578;13.426;2023-03-14T02:42:44;11.80;99.90
4757;DHT22;2392;52.578;13.426;2023-03-14T02:45:36;11.80;99.90
4757;DHT22;2392;52.578;13.426;2023-03-14T02:48:07;11.80;99.90
4757;DHT22;2392;52.578;13.426;2023-03-14T02:50:38;11.80;99.90
4757;DHT22;2392;52.578;13.426;2023-03-14T02:53:06;11.80;99.90
4757;DHT22;2392;52.578;13.426;2023-03-14T02:55:33;11.80;99.90
4757;DHT22;2392;52.578;13.426;2023-03-14T02:58:07;11.80;99.90
4757;DHT22;2392;52.578;13.426;2023-03-14T03:00:34;11.80;99.90
4757;DHT22;2392;52.578;13.426;2023-03-14T03:03:03;11.80;99.90
4757;DHT22;2392;52.578;13.426;2023-03-14T03:05:31;11.80;99.90
4757;DHT22;2392;52.578;13.426;2023-03-14T03:07:59;11.70;99.90
4757;DHT22;2392;52.578;13.426;2023-03-14T03:10:27;11.70;99.90
4757;DHT22;2392;52.578;13.426;2023-03-14T03:12:54;11.70;99.90
4757;DHT22;2392;52.578;13.426;2023-03-14T03:15:26;11.70;99.90
4757;DHT22;2392;52.578;13.426;2023-03-14T03:17:53;11.60;99.90
4757;DHT22;2392;52.578;13.426;2023-03-14T03:20:20;11.60;99.90
4757;DHT22;2392;52.578;13.426;2023-03-14T03:22:47;11.60;99.90
4757;DHT22;2392;52.578;13.426;2023-03-14T03:25:15;11.60;99.90
4757;DHT22;2392;52.578;13.426;2023-03-14T03:27:44;11.60;99.90
4757;DHT22;2392;52.578;13.426;2023-03-14T03:30:11;11.60;99.90
4757;DHT22;2392;52.578;13.426;2023-03-14T03:32:40;11.60;99.90
4757;DHT22;2392;52.578;13.426;2023-03-14T03:35:08;11.60;99.90
4757;DHT22;2392;52.578;13.426;2023-03-14T03:37:38;11.50;99.90
4757;DHT22;2392;52.578;13.426;2023-03-14T03:40:07;11.60;99.90
4757;DHT22;2392;52.578;13.426;2023-03-14T03:42:35;11.50;99.90
4757;DHT22;2392;52.578;13.426;2023-03-14T03:45:05;11.50;99.90
4757;DHT22;2392;52.578;13.426;2023-03-14T03:47:35;11.50;99.90
4757;DHT22;2392;52.578;13.426;2023-03-14T03:50:05;11.50;99.90
4757;DHT22;2392;52.578;13.426;2023-03-14T03:52:33;11.50;99.90
4757;DHT22;2392;52.578;13.426;2023-03-14T03:54:59;11.50;99.90
4757;DHT22;2392;52.578;13.426;2023-03-14T03:57:27;11.50;99.90
4757;DHT22;2392;52.578;13.426;2023-03-14T03:59:56;11.50;99.90
4757;DHT22;2392;52.578;13.426;2023-03-14T04:02:23;11.40;99.90
4757;DHT22;2392;52.578;13.426;2023-03-14T04:04:50;11.40;99.90
4757;DHT22;2392;52.578;13.426;2023-03-14T04:07:19;11.40;99.90
4757;DHT22;2392;52.578;13.426;2023-03-14T04:09:46;11.40;99.90
4757;DHT22;2392;52.578;13.426;2023-03-14T04:12:33;11.40;99.90
4757;DHT22;2392;52.578;13.426;2023-03-14T04:15:17;11.40;99.90
4757;DHT22;2392;52.578;13.426;2023-03-14T04:17:47;11.40;99.90
4757;DHT22;2392;52.578;13.426;2023-03-14T04:20:15;11.40;99.90
4757;DHT22;2392;52.578;13.426;2023-03-14T04:22:43;11.30;99.90
4757;DHT22;2392;52.578;13.426;2023-03-14T04:25:11;11.30;99.90
4757;DHT22;2392;52.578;13.426;2023-03-14T04:27:43;11.30;99.90
4757;DHT22;2392;52.578;13.426;2023-03-14T04:30:18;11.30;99.90
4757;DHT22;2392;52.578;13.426;2023-03-14T04:32:54;11.30;99.90
4757;DHT22;2392;52.578;13.426;2023-03-14T04:35:24;11.30;99.90
4757;DHT22;2392;52.578;13.426;2023-03-14T04:37:57;11.30;99.90
4757;DHT22;2392;52.578;13.426;2023-03-14T04:40:25;11.30;99.90
4757;DHT22;2392;52.578;13.426;2023-03-14T04:42:56;11.30;99.90
4757;DHT22;2392;52.578;13.426;2023-03-14T04:45:23;11.30;99.90
4757;DHT22;2392;52.578;13.426;2023-03-14T04:47:51;11.30;99.90
4757;DHT22;2392;52.578;13.426;2023-03-14T04:50:19;11.30;99.90
4757;DHT22;2392;52.578;13.426;2023-03-14T04:52:47;11.30;99.90
4757;DHT22;2392;52.578;13.426;2023-03-14T04:55:16;11.30;99.90
4757;DHT22;2392;52.578;13.426;2023-03-14T04:57:44;11.30;99.90
4757;DHT22;2392;52.578;13.426;2023-03-14T05:00:12;11.30;99.90
4757;DHT22;2392;52.578;13.426;2023-03-14T05:03:05;11.30;99.90
4757;DHT22;2392;52.578;13.426;2023-03-14T05:05:51;11.30;99.90
4757;DHT22;2392;52.578;13.426;2023-03-14T05:08:34;11.30;99.90
4757;DHT22;2392;52.578;13.426;2023-03-14T05:11:20;11.30;99.90
4757;DHT22;2392;52.578;13.426;2023-03-14T05:13:47;11.30;99.90
4757;DHT22;2392;52.578;13.426;2023-03-14T05:16:33;11.30;99.90
4757;DHT22;2392;52.578;13.426;2023-03-14T05:19:14;11.30;99.90
4757;DHT22;2392;52.578;13.426;2023-03-14T05:22:02;11.30;99.90
4757;DHT22;2392;52.578;13.426;2023-03-14T05:24:47;11.30;99.90
4757;DHT22;2392;52.578;13.426;2023-03-14T05:27:36;11.30;99.90
4757;DHT22;2392;52.578;13.426;2023-03-14T05:30:30;11.30;99.90
4757;DHT22;2392;52.578;13.426;2023-03-14T05:33:20;11.30;99.90
4757;DHT22;2392;52.578;13.426;2023-03-14T05:36:07;11.30;99.90
4757;DHT22;2392;52.578;13.426;2023-03-14T05:38:54;11.30;99.90
4757;DHT22;2392;52.578;13.426;2023-03-14T05:41:27;11.30;99.90
4757;DHT22;2392;52.578;13.426;2023-03-14T05:44:05;11.30;99.90
4757;DHT22;2392;52.578;13.426;2023-03-14T05:46:50;11.30;99.90
4757;DHT22;2392;52.578;13.426;2023-03-14T05:49:33;11.30;99.90
4757;DHT22;2392;52.578;13.426;2023-03-14T05:52:29;11.30;99.90
4757;DHT22;2392;52.578;13.426;2023-03-14T05:55:10;11.30;99.90
4757;DHT22;2392;52.578;13.426;2023-03-14T05:57:56;11.30;99.90
4757;DHT22;2392;52.578;13.426;2023-03-14T06:00:43;11.30;99.90
4757;DHT22;2392;52.578;13.426;2023-03-14T06:03:23;11.30;99.90
4757;DHT22;2392;52.578;13.426;2023-03-14T06:05:51;11.30;99.90
4757;DHT22;2392;52.578;13.426;2023-03-14T06:08:21;11.30;99.90
4757;DHT22;2392;52.578;13.426;2023-03-14T06:10:48;11.30;99.90
4757;DHT22;2392;52.578;13.426;2023-03-14T06:13:15;11.30;99.90
4757;DHT22;2392;52.578;13.426;2023-03-14T06:15:44;11.30;99.90
4757;DHT22;2392;52.578;13.426;2023-03-14T06:18:11;11.30;99.90
4757;DHT22;2392;52.578;13.426;2023-03-14T06:20:41;11.30;99.90
4757;DHT22;2392;52.578;13.426;2023-03-14T06:23:11;11.30;99.90
4757;DHT22;2392;52.578;13.426;2023-03-14T06:25:38;11.40;99.90
4757;DHT22;2392;52.578;13.426;2023-03-14T06:28:05;11.40;99.90
4757;DHT22;2392;52.578;13.426;2023-03-14T06:30:33;11.40;99.90
4757;DHT22;2392;52.578;13.426;2023-03-14T06:33:02;11.40;99.90
4757;DHT22;2392;52.578;13.426;2023-03-14T06:35:29;11.40;99.90
4757;DHT22;2392;52.578;13.426;2023-03-14T06:37:56;11.40;99.90
4757;DHT22;2392;52.578;13.426;2023-03-14T06:40:23;11.50;99.90
4757;DHT22;2392;52.578;13.426;2023-03-14T06:43:03;11.50;99.90
4757;DHT22;2392;52.578;13.426;2023-03-14T06:45:32;11.50;99.90
4757;DHT22;2392;52.578;13.426;2023-03-14T06:48:03;11.50;99.90
4757;DHT22;2392;52.578;13.426;2023-03-14T06:50:47;11.60;99.90
4757;DHT22;2392;52.578;13.426;2023-03-14T06:53:14;11.60;99.90
4757;DHT22;2392;52.578;13.426;2023-03-14T06:55:43;11.70;99.90
4757;DHT22;2392;52.578;13.426;2023-03-14T06:58:12;11.70;99.90
4757;DHT22;2392;52.578;13.426;2023-03-14T07:00:42;11.70;99.90
4757;DHT22;2392;52.578;13.426;2023-03-14T07:03:14;11.80;99.90
4757;DHT22;2392;52.578;13.426;2023-03-14T07:05:45;11.80;99.90
4757;DHT22;2392;52.578;13.426;2023-03-14T07:08:12;11.90;99.90
4757;DHT22;2392;52.578;13.426;2023-03-14T07:10:39;11.90;99.90
4757;DHT22;2392;52.578;13.426;2023-03-14T07:13:07;12.00;99.90
4757;DHT22;2392;52.578;13.426;2023-03-14T07:15:42;12.00;99.90
4757;DHT22;2392;52.578;13.426;2023-03-14T07:18:10;12.00;99.90
4757;DHT22;2392;52.578;13.426;2023-03-14T07:20:39;12.00;99.90
4757;DHT22;2392;52.578;13.426;2023-03-14T07:23:07;12.00;99.90
4757;DHT22;2392;52.578;13.426;2023-03-14T07:25:43;12.00;99.90
4757;DHT22;2392;52.578;13.426;2023-03-14T07:28:10;12.00;99.90
4757;DHT22;2392;52.578;13.426;2023-03-14T07:30:39;11.90;99.90
4757;DHT22;2392;52.578;13.426;2023-03-14T07:33:15;11.90;99.90
4757;DHT22;2392;52.578;13.426;2023-03-14T07:35:45;11.90;99.90
4757;DHT22;2392;52.578;13.426;2023-03-14T07:38:13;11.90;99.90
4757;DHT22;2392;52.578;13.426;2023-03-14T07:40:58;11.90;99.90
4757;DHT22;2392;52.578;13.426;2023-03-14T07:43:25;11.90;99.90
4757;DHT22;2392;52.578;13.426;2023-03-14T07:45:52;11.90;99.90
4757;DHT22;2392;52.578;13.426;2023-03-14T07:48:19;11.90;99.90
4757;DHT22;2392;52.578;13.426;2023-03-14T07:50:50;11.90;99.90
4757;DHT22;2392;52.578;13.426;2023-03-14T07:53:17;11.90;99.90
4757;DHT22;2392;52.578;13.426;2023-03-14T07:55:45;11.90;99.90
4757;DHT22;2392;52.578;13.426;2023-03-14T07:58:12;11.90;99.90
4757;DHT22;2392;52.578;13.426;2023-03-14T08:00:39;11.90;99.90
4757;DHT22;2392;52.578;13.426;2023-03-14T08:03:06;11.90;99.90
4757;DHT22;2392;52.578;13.426;2023-03-14T08:05:34;11.90;99.90
4757;DHT22;2392;52.578;13.426;2023-03-14T08:08:04;12.00;99.90
4757;DHT22;2392;52.578;13.426;2023-03-14T08:10:31;12.10;99.90
4757;DHT22;2392;52.578;13.426;2023-03-14T08:13:00;12.20;99.90
4757;DHT22;2392;52.578;13.426;2023-03-14T08:15:28;12.20;99.90
4757;DHT22;2392;52.578;13.426;2023-03-14T08:17:56;12.30;99.90
4757;DHT22;2392;52.578;13.426;2023-03-14T08:20:26;12.40;99.90
4757;DHT22;2392;52.578;13.426;2023-03-14T08:22:55;12.50;99.90
4757;DHT22;2392;52.578;13.426;2023-03-14T08:25:25;12.70;99.90
4757;DHT22;2392;52.578;13.426;2023-03-14T08:27:52;12.80;99.90
4757;DHT22;2392;52.578;13.426;2023-03-14T08:30:20;12.80;99.90
4757;DHT22;2392;52.578;13.426;2023-03-14T08:32:48;12.80;99.90
4757;DHT22;2392;52.578;13.426;2023-03-14T08:35:15;12.90;99.90
4757;DHT22;2392;52.578;13.426;2023-03-14T08:37:42;12.80;99.90
4757;DHT22;2392;52.578;13.426;2023-03-14T08:40:10;12.80;99.90
4757;DHT22;2392;52.578;13.426;2023-03-14T08:42:40;12.80;99.90
4757;DHT22;2392;52.578;13.426;2023-03-14T08:45:08;12.80;99.90
4757;DHT22;2392;52.578;13.426;2023-03-14T08:47:35;12.80;99.90
4757;DHT22;2392;52.578;13.426;2023-03-14T08:50:04;12.70;99.90
4757;DHT22;2392;52.578;13.426;2023-03-14T08:52:31;12.70;99.90
4757;DHT22;2392;52.578;13.426;2023-03-14T08:54:59;12.70;99.90
4757;DHT22;2392;52.578;13.426;2023-03-14T08:57:26;12.70;99.90
4757;DHT22;2392;52.578;13.426;2023-03-14T08:59:56;12.70;99.90
4757;DHT22;2392;52.578;13.426;2023-03-14T09:02:24;12.60;99.90
4757;DHT22;2392;52.578;13.426;2023-03-14T09:04:52;12.60;99.90
4757;DHT22;2392;52.578;13.426;2023-03-14T09:07:20;12.60;99.90
4757;DHT22;2392;52.578;13.426;2023-03-14T09:09:47;12.60;99.90
4757;DHT22;2392;52.578;13.426;2023-03-14T09:12:14;12.60;99.90
4757;DHT22;2392;52.578;13.426;2023-03-14T09:14:41;12.80;99.90
4757;DHT22;2392;52.578;13.426;2023-03-14T09:17:10;12.80;99.90
4757;DHT22;2392;52.578;13.426;2023-03-14T09:19:37;12.90;99.90
4757;DHT22;2392;52.578;13.426;2023-03-14T09:22:05;13.00;99.90
4757;DHT22;2392;52.578;13.426;2023-03-14T09:24:32;13.20;99.90
4757;DHT22;2392;52.578;13.426;2023-03-14T09:26:59;13.20;99.90
4757;DHT22;2392;52.578;13.426;2023-03-14T09:29:26;13.20;99.90
4757;DHT22;2392;52.578;13.426;2023-03-14T09:31:54;13.20;99.90
4757;DHT22;2392;52.578;13.426;2023-03-14T09:34:22;13.20;99.90
4757;DHT22;2392;52.578;13.426;2023-03-14T09:36:49;13.20;99.90
4757;DHT22;2392;52.578;13.426;2023-03-14T09:39:19;13.30;99.90
4757;DHT22;2392;52.578;13.426;2023-03-14T09:41:49;13.40;99.90
4757;DHT22;2392;52.578;13.426;2023-03-14T09:44:22;13.60;99.90
4757;DHT22;2392;52.578;13.426;2023-03-14T09:46:53;13.90;99.90
4757;DHT22;2392;52.578;13.426;2023-03-14T09:49:26;14.00;99.90
4757;DHT22;2392;52.578;13.426;2023-03-14T09:51:56;14.10;99.90
4757;DHT22;2392;52.578;13.426;2023-03-14T09:54:31;14.20;99.90
4757;DHT22;2392;52.578;13.426;2023-03-14T09:56:59;14.10;99.90
4757;DHT22;2392;52.578;13.426;2023-03-14T09:59:27;14.00;99.90
4757;DHT22;2392;52.578;13.426;2023-03-14T10:01:57;13.90;99.90
4757;DHT22;2392;52.578;13.426;2023-03-14T10:04:27;13.80;99.90
4757;DHT22;2392;52.578;13.426;2023-03-14T10:06:55;13.80;99.90
4757;DHT22;2392;52.578;13.426;2023-03-14T10:09:24;13.70;99.90
4757;DHT22;2392;52.578;13.426;2023-03-14T10:11:54;13.60;99.90
4757;DHT22;2392;52.578;13.426;2023-03-14T10:14:32;13.60;99.90
4757;DHT22;2392;52.578;13.426;2023-03-14T10:17:09;13.50;99.90
4757;DHT22;2392;52.578;13.426;2023-03-14T10:19:50;13.60;99.90
4757;DHT22;2392;52.578;13.426;2023-03-14T10:22:18;13.60;99.90
4757;DHT22;2392;52.578;13.426;2023-03-14T10:24:47;13.60;99.90
4757;DHT22;2392;52.578;13.426;2023-03-14T10:27:19;13.60;99.90
4757;DHT22;2392;52.578;13.426;2023-03-14T10:29:53;13.60;99.90
4757;DHT22;2392;52.578;13.426;2023-03-14T10:32:22;13.70;99.90
4757;DHT22;2392;52.578;13.426;2023-03-14T10:35:11;13.60;99.90
4757;DHT22;2392;52.578;13.426;2023-03-14T10:37:50;13.70;99.90
4757;DHT22;2392;52.578;13.426;2023-03-14T10:40:19;13.70;99.90
4757;DHT22;2392;52.578;13.426;2023-03-14T10:42:48;13.70;99.90
4757;DHT22;2392;52.578;13.426;2023-03-14T10:45:30;13.70;99.90
4757;DHT22;2392;52.578;13.426;2023-03-14T10:48:05;13.60;99.90
4757;DHT22;2392;52.578;13.426;2023-03-14T10:50:34;13.50;99.90
4757;DHT22;2392;52.578;13.426;2023-03-14T10:53:03;13.50;99.90
4757;DHT22;2392;52.578;13.426;2023-03-14T10:55:40;13.50;99.90
4757;DHT22;2392;52.578;13.426;2023-03-14T10:58:18;13.50;99.90
4757;DHT22;2392;52.578;13.426;2023-03-14T11:00:50;13.50;99.90
4757;DHT22;2392;52.578;13.426;2023-03-14T11:03:19;13.50;99.90
4757;DHT22;2392;52.578;13.426;2023-03-14T11:05:51;13.50;99.90
4757;DHT22;2392;52.578;13.426;2023-03-14T11:08:24;13.60;99.90
4757;DHT22;2392;52.578;13.426;2023-03-14T11:10:54;13.60;99.90
4757;DHT22;2392;52.578;13.426;2023-03-14T11:13:26;13.60;99.90
4757;DHT22;2392;52.578;13.426;2023-03-14T11:16:02;13.60;99.90
4757;DHT22;2392;52.578;13.426;2023-03-14T11:21:52;13.50;99.90
4757;DHT22;2392;52.578;13.426;2023-03-14T11:24:41;13.50;99.90
4757;DHT22;2392;52.578;13.426;2023-03-14T11:27:17;13.50;99.90
4757;DHT22;2392;52.578;13.426;2023-03-14T11:29:54;13.50;99.90
4757;DHT22;2392;52.578;13.426;2023-03-14T11:32:32;13.50;99.90
4757;DHT22;2392;52.578;13.426;2023-03-14T11:35:03;13.60;99.90
4757;DHT22;2392;52.578;13.426;2023-03-14T11:40:14;13.60;99.90
4757;DHT22;2392;52.578;13.426;2023-03-14T11:42:47;13.70;99.90
4757;DHT22;2392;52.578;13.426;2023-03-14T11:45:18;13.60;99.90
4757;DHT22;2392;52.578;13.426;2023-03-14T11:47:48;13.60;99.90
4757;DHT22;2392;52.578;13.426;2023-03-14T11:50:21;13.60;99.90
4757;DHT22;2392;52.578;13.426;2023-03-14T11:52:53;13.60;99.90
4757;DHT22;2392;52.578;13.426;2023-03-14T11:55:27;13.60;99.90
4757;DHT22;2392;52.578;13.426;2023-03-14T11:58:01;13.60;99.90
4757;DHT22;2392;52.578;13.426;2023-03-14T12:00:30;13.60;99.90
4757;DHT22;2392;52.578;13.426;2023-03-14T12:03:00;13.60;99.90
4757;DHT22;2392;52.578;13.426;2023-03-14T12:05:45;13.70;99.90
4757;DHT22;2392;52.578;13.426;2023-03-14T12:08:29;13.70;99.90
4757;DHT22;2392;52.578;13.426;2023-03-14T12:11:00;13.80;99.90
4757;DHT22;2392;52.578;13.426;2023-03-14T12:13:31;13.80;99.90
4757;DHT22;2392;52.578;13.426;2023-03-14T12:16:00;13.80;99.90
4757;DHT22;2392;52.578;13.426;2023-03-14T12:18:33;13.80;99.90
4757;DHT22;2392;52.578;13.426;2023-03-14T12:21:03;13.80;99.90
4757;DHT22;2392;52.578;13.426;2023-03-14T12:23:36;13.80;99.90
4757;DHT22;2392;52.578;13.426;2023-03-14T12:26:17;13.70;99.90
4757;DHT22;2392;52.578;13.426;2023-03-14T12:28:49;13.60;99.90
4757;DHT22;2392;52.578;13.426;2023-03-14T12:31:36;13.70;99.90
4757;DHT22;2392;52.578;13.426;2023-03-14T12:39:45;13.90;99.90
4757;DHT22;2392;52.578;13.426;2023-03-14T12:42:21;14.10;99.90
4757;DHT22;2392;52.578;13.426;2023-03-14T12:44:51;14.30;99.90
4757;DHT22;2392;52.578;13.426;2023-03-14T12:50:36;14.50;99.90
4757;DHT22;2392;52.578;13.426;2023-03-14T12:53:47;14.50;99.90
4757;DHT22;2392;52.578;13.426;2023-03-14T12:56:26;14.40;99.90
4757;DHT22;2392;52.578;13.426;2023-03-14T13:01:48;14.20;99.90
4757;DHT22;2392;52.578;13.426;2023-03-14T13:04:27;14.10;99.90
4757;DHT22;2392;52.578;13.426;2023-03-14T13:06:56;14.10;99.90
4757;DHT22;2392;52.578;13.426;2023-03-14T13:09:49;14.00;99.90
4757;DHT22;2392;52.578;13.426;2023-03-14T13:12:19;14.00;99.90
4757;DHT22;2392;52.578;13.426;2023-03-14T13:14:51;14.00;99.90
4757;DHT22;2392;52.578;13.426;2023-03-14T13:17:23;14.00;99.90
4757;DHT22;2392;52.578;13.426;2023-03-14T13:19:53;14.00;99.90
4757;DHT22;2392;52.578;13.426;2023-03-14T13:22:24;14.00;99.90
4757;DHT22;2392;52.578;13.426;2023-03-14T13:24:59;14.20;99.90
4757;DHT22;2392;52.578;13.426;2023-03-14T13:27:30;14.30;99.90
4757;DHT22;2392;52.578;13.426;2023-03-14T13:30:05;14.50;99.90
4757;DHT22;2392;52.578;13.426;2023-03-14T13:32:32;14.90;99.90
4757;DHT22;2392;52.578;13.426;2023-03-14T13:34:59;15.00;99.90
4757;DHT22;2392;52.578;13.426;2023-03-14T13:37:27;15.20;99.90
4757;DHT22;2392;52.578;13.426;2023-03-14T13:39:55;15.80;99.90
4757;DHT22;2392;52.578;13.426;2023-03-14T13:42:25;16.40;99.90
4757;DHT22;2392;52.578;13.426;2023-03-14T13:44:53;16.80;99.90
4757;DHT22;2392;52.578;13.426;2023-03-14T13:47:24;17.00;99.90
4757;DHT22;2392;52.578;13.426;2023-03-14T13:49:53;17.00;99.90
4757;DHT22;2392;52.578;13.426;2023-03-14T13:52:28;16.80;99.90
4757;DHT22;2392;52.578;13.426;2023-03-14T13:54:56;16.80;99.90
4757;DHT22;2392;52.578;13.426;2023-03-14T13:57:23;16.50;99.90
4757;DHT22;2392;52.578;13.426;2023-03-14T14:00:16;16.30;99.90
4757;DHT22;2392;52.578;13.426;2023-03-14T14:02:46;15.90;99.90
4757;DHT22;2392;52.578;13.426;2023-03-14T14:05:14;15.60;99.90
4757;DHT22;2392;52.578;13.426;2023-03-14T14:07:43;15.70;99.90
4757;DHT22;2392;52.578;13.426;2023-03-14T14:10:12;15.80;99.90
4757;DHT22;2392;52.578;13.426;2023-03-14T14:12:42;15.90;99.90
4757;DHT22;2392;52.578;13.426;2023-03-14T14:15:14;16.00;99.90
4757;DHT22;2392;52.578;13.426;2023-03-14T14:17:46;16.10;99.90
4757;DHT22;2392;52.578;13.426;2023-03-14T14:20:21;16.40;99.90
4757;DHT22;2392;52.578;13.426;2023-03-14T14:22:49;16.80;99.90
4757;DHT22;2392;52.578;13.426;2023-03-14T14:25:16;16.80;99.90
4757;DHT22;2392;52.578;13.426;2023-03-14T14:27:46;16.80;99.90
4757;DHT22;2392;52.578;13.426;2023-03-14T14:30:32;16.70;99.90
4757;DHT22;2392;52.578;13.426;2023-03-14T14:33:18;16.30;99.90
4757;DHT22;2392;52.578;13.426;2023-03-14T14:35:52;15.90;99.90
4757;DHT22;2392;52.578;13.426;2023-03-14T14:38:19;15.60;99.90
4757;DHT22;2392;52.578;13.426;2023-03-14T14:40:49;15.30;99.90
4757;DHT22;2392;52.578;13.426;2023-03-14T14:43:21;15.10;99.90
4757;DHT22;2392;52.578;13.426;2023-03-14T14:45:49;14.90;99.90
4757;DHT22;2392;52.578;13.426;2023-03-14T14:48:21;14.70;99.90
4757;DHT22;2392;52.578;13.426;2023-03-14T14:51:00;14.60;99.90
4757;DHT22;2392;52.578;13.426;2023-03-14T14:53:30;14.50;99.90
4757;DHT22;2392;52.578;13.426;2023-03-14T14:55:59;14.40;99.90
4757;DHT22;2392;52.578;13.426;2023-03-14T14:58:34;14.30;99.90
4757;DHT22;2392;52.578;13.426;2023-03-14T15:01:04;14.30;99.90
4757;DHT22;2392;52.578;13.426;2023-03-14T15:03:34;14.20;99.90
4757;DHT22;2392;52.578;13.426;2023-03-14T15:06:03;14.20;99.90
4757;DHT22;2392;52.578;13.426;2023-03-14T15:08:30;14.20;99.90
4757;DHT22;2392;52.578;13.426;2023-03-14T15:10:58;14.10;99.90
4757;DHT22;2392;52.578;13.426;2023-03-14T15:13:25;14.00;99.90
4757;DHT22;2392;52.578;13.426;2023-03-14T15:15:52;13.80;99.90
4757;DHT22;2392;52.578;13.426;2023-03-14T15:18:22;13.70;99.90
4757;DHT22;2392;52.578;13.426;2023-03-14T15:20:51;13.60;99.90
4757;DHT22;2392;52.578;13.426;2023-03-14T15:23:20;13.00;99.90
4757;DHT22;2392;52.578;13.426;2023-03-14T15:25:47;11.90;99.90
4757;DHT22;2392;52.578;13.426;2023-03-14T15:28:16;10.70;99.90
4757;DHT22;2392;52.578;13.426;2023-03-14T15:30:46;9.70;99.90
4757;DHT22;2392;52.578;13.426;2023-03-14T15:33:14;9.10;99.90
4757;DHT22;2392;52.578;13.426;2023-03-14T15:35:41;8.60;99.90
4757;DHT22;2392;52.578;13.426;2023-03-14T15:38:15;8.20;99.90
4757;DHT22;2392;52.578;13.426;2023-03-14T15:40:42;8.00;99.90
4757;DHT22;2392;52.578;13.426;2023-03-14T15:43:09;7.80;99.90
4757;DHT22;2392;52.578;13.426;2023-03-14T15:45:37;7.60;99.90
4757;DHT22;2392;52.578;13.426;2023-03-14T15:48:04;7.20;99.90
4757;DHT22;2392;52.578;13.426;2023-03-14T15:50:31;6.90;99.90
4757;DHT22;2392;52.578;13.426;2023-03-14T15:52:58;6.60;99.90
4757;DHT22;2392;52.578;13.426;2023-03-14T15:55:27;6.10;99.90
4757;DHT22;2392;52.578;13.426;2023-03-14T15:57:54;5.60;99.90
4757;DHT22;2392;52.578;13.426;2023-03-14T16:00:21;5.30;99.90
4757;DHT22;2392;52.578;13.426;2023-03-14T16:02:50;5.00;99.90
4757;DHT22;2392;52.578;13.426;2023-03-14T16:05:17;4.80;99.90
4757;DHT22;2392;52.578;13.426;2023-03-14T16:07:45;4.70;99.90
4757;DHT22;2392;52.578;13.426;2023-03-14T16:10:14;4.60;99.90
4757;DHT22;2392;52.578;13.426;2023-03-14T16:12:43;4.50;99.90
4757;DHT22;2392;52.578;13.426;2023-03-14T16:15:10;4.30;99.90
4757;DHT22;2392;52.578;13.426;2023-03-14T16:17:37;4.20;99.90
4757;DHT22;2392;52.578;13.426;2023-03-14T16:20:06;4.00;99.90
4757;DHT22;2392;52.578;13.426;2023-03-14T16:22:34;3.90;99.90
4757;DHT22;2392;52.578;13.426;2023-03-14T16:25:02;3.80;99.90
4757;DHT22;2392;52.578;13.426;2023-03-14T16:27:29;3.60;99.90
4757;DHT22;2392;52.578;13.426;2023-03-14T16:29:58;3.60;99.90
4757;DHT22;2392;52.578;13.426;2023-03-14T16:32:26;3.50;99.90
4757;DHT22;2392;52.578;13.426;2023-03-14T16:34:53;3.40;99.90